Terminal Aerodrome Forecast
Issued by NWS Sterling, VA

Current Version | Previous Version | Graphics & Text | Print | Product List | Glossary On
Versions: 1 2 3 4 5 6 7 8 9 10 11 12 13 14 15 16 17 18 19 20 21 22
656
FTUS41 KLWX 040523
TAFIAD
TAF
KIAD 040523Z 0406/0512 22004KT 1/4SM -DZ FG VV002
     FM040900 33010KT 6SM BR SCT002 BKN080
     FM041200 33010G16KT P6SM BKN090
     FM041800 33011KT P6SM SCT100
     FM042200 32009KT P6SM BKN110=

USA.gov is the U.S. government's official web portal to all federal, state and local government web resources and services.